Terminal Aerodrome Forecast
Issued by NWS Billings, MT

Home | Current Version | Previous Version | Text Only | Print | Product List | Glossary On
Versions: 1 2 3 4 5 6 7 8 9 10 11 12 13 14 15 16 17 18 19 20 21 22 23 24 25 26 27 28 29 30 31 32 33 34
274
FTUS45 KBYZ 141739
TAFBIL
TAF
KBIL 141739Z 1418/1518 29025G35KT P6SM SCT080 BKN220
     FM150300 28013KT P6SM BKN060
     FM150600 25013KT P6SM VCSH BKN060
     FM151200 26015G30KT P6SM VCSH OVC050
     FM151700 28025G40KT P6SM VCSH OVC050=

USA.gov is the U.S. government's official web portal to all federal, state and local government web resources and services.